createdAt,value
2016-07-31T00:00:00.216Z,0
2016-07-31T00:01:00.250Z,0
2016-07-31T00:02:00.281Z,0
2016-07-31T00:03:00.310Z,0
2016-07-31T00:04:00.340Z,0
2016-07-31T00:05:00.377Z,0
2016-07-31T00:06:00.402Z,0
2016-07-31T00:07:00.433Z,0
2016-07-31T00:08:00.485Z,0
2016-07-31T00:09:00.510Z,0
2016-07-31T00:10:01.257Z,0
2016-07-31T00:11:01.277Z,0
2016-07-31T00:12:01.314Z,0
2016-07-31T00:13:00.636Z,0
2016-07-31T00:14:00.645Z,0
2016-07-31T00:15:01.420Z,0
2016-07-31T00:16:00.705Z,0
2016-07-31T00:17:00.733Z,0
2016-07-31T00:18:00.760Z,0
2016-07-31T00:19:00.795Z,0
2016-07-31T00:20:00.864Z,0
2016-07-31T00:21:00.853Z,0
2016-07-31T00:22:00.905Z,0
2016-07-31T00:23:00.929Z,0
2016-07-31T00:24:01.662Z,0
2016-07-31T00:25:00.999Z,0
2016-07-31T00:26:01.734Z,0
2016-07-31T00:27:01.751Z,0
2016-07-31T00:28:01.139Z,0
2016-07-31T00:29:01.109Z,0
2016-07-31T00:30:01.129Z,0
2016-07-31T00:31:01.875Z,0
2016-07-31T00:32:01.195Z,0
2016-07-31T00:33:01.929Z,0
2016-07-31T00:34:01.251Z,0
2016-07-31T00:35:01.283Z,0
2016-07-31T00:36:02.020Z,0
2016-07-31T00:37:01.347Z,0
2016-07-31T00:38:02.118Z,0
2016-07-31T00:39:01.400Z,0
2016-07-31T00:40:02.852Z,0
2016-07-31T00:41:01.464Z,0
2016-07-31T00:42:02.198Z,0
2016-07-31T00:44:01.543Z,0
2016-07-31T00:45:01.576Z,0
2016-07-31T00:46:01.625Z,0
2016-07-31T00:47:01.645Z,0
2016-07-31T00:48:01.663Z,0
2016-07-31T00:49:02.404Z,0
2016-07-31T00:50:01.743Z,0
2016-07-31T00:51:01.753Z,0
2016-07-31T00:52:01.978Z,0
2016-07-31T00:53:02.530Z,0
2016-07-31T00:54:01.849Z,0
2016-07-31T00:55:01.874Z,0
2016-07-31T00:56:01.927Z,0
2016-07-31T00:57:03.361Z,0
2016-07-31T00:59:02.046Z,0
2016-07-31T01:00:02.026Z,0
2016-07-31T01:01:02.055Z,0
2016-07-31T01:02:02.089Z,0
2016-07-31T01:03:02.137Z,0
2016-07-31T01:04:02.158Z,0
2016-07-31T01:05:02.176Z,0
2016-07-31T01:06:02.203Z,0
2016-07-31T01:07:02.241Z,0
2016-07-31T01:08:02.986Z,0
2016-07-31T01:09:02.298Z,0
2016-07-31T01:10:02.327Z,0
2016-07-31T01:11:02.357Z,0
2016-07-31T01:12:02.384Z,0
2016-07-31T01:14:02.454Z,0
2016-07-31T01:15:02.474Z,0
2016-07-31T01:16:02.515Z,0
2016-07-31T01:17:02.562Z,0
2016-07-31T01:18:02.562Z,0
2016-07-31T01:19:02.600Z,0
2016-07-31T01:20:02.637Z,0
2016-07-31T01:21:03.365Z,0
2016-07-31T01:22:02.682Z,0
2016-07-31T01:23:03.421Z,0
2016-07-31T01:24:03.448Z,0
2016-07-31T01:25:02.771Z,0
2016-07-31T01:26:02.804Z,0
2016-07-31T01:27:02.854Z,0
2016-07-31T01:29:02.967Z,0
2016-07-31T01:30:02.923Z,0
2016-07-31T01:31:02.979Z,0
2016-07-31T01:32:02.979Z,0
2016-07-31T01:33:03.714Z,0
2016-07-31T01:34:03.760Z,0
2016-07-31T01:35:03.794Z,0
2016-07-31T01:36:03.814Z,0
2016-07-31T01:37:03.139Z,0
2016-07-31T01:38:03.192Z,0
2016-07-31T01:39:05.322Z,0
2016-07-31T01:40:03.218Z,0
2016-07-31T01:41:03.241Z,0
2016-07-31T01:42:03.275Z,0
2016-07-31T01:44:04.066Z,0
2016-07-31T01:45:03.383Z,0
2016-07-31T01:46:03.418Z,0
2016-07-31T01:47:03.428Z,0
2016-07-31T01:48:03.470Z,0
2016-07-31T01:49:03.480Z,0
2016-07-31T01:50:03.518Z,0
2016-07-31T01:51:03.539Z,0
2016-07-31T01:52:03.586Z,0
2016-07-31T01:53:03.605Z,0
2016-07-31T01:54:03.632Z,0
2016-07-31T01:55:04.368Z,0
2016-07-31T01:56:03.685Z,0
2016-07-31T01:57:04.938Z,0
2016-07-31T01:58:04.487Z,0
2016-07-31T01:59:03.777Z,0
2016-07-31T02:00:04.535Z,0
2016-07-31T02:01:05.256Z,0
2016-07-31T02:02:03.885Z,0
2016-07-31T02:03:03.907Z,0
2016-07-31T02:04:03.922Z,0
2016-07-31T02:05:05.373Z,0
2016-07-31T02:06:04.697Z,0
2016-07-31T02:07:04.731Z,0
2016-07-31T02:08:04.045Z,0
2016-07-31T02:09:04.091Z,0
2016-07-31T02:10:04.814Z,0
2016-07-31T02:11:04.134Z,0
2016-07-31T02:12:04.159Z,0
2016-07-31T02:13:04.904Z,0
2016-07-31T02:14:04.220Z,0
2016-07-31T02:15:04.246Z,0
2016-07-31T02:16:04.295Z,0
2016-07-31T02:17:04.324Z,0
2016-07-31T02:18:04.341Z,0
2016-07-31T02:19:04.364Z,0
2016-07-31T02:20:05.817Z,0
2016-07-31T02:21:04.437Z,0
2016-07-31T02:22:04.452Z,0
2016-07-31T02:23:04.483Z,0
2016-07-31T02:24:04.541Z,0
2016-07-31T02:25:05.262Z,0
2016-07-31T02:26:04.598Z,0
2016-07-31T02:27:05.309Z,0
2016-07-31T02:28:04.649Z,0
2016-07-31T02:29:06.081Z,0
2016-07-31T02:30:04.693Z,0
2016-07-31T02:31:05.435Z,0
2016-07-31T02:32:04.790Z,0
2016-07-31T02:33:05.484Z,0
2016-07-31T02:34:04.811Z,0
2016-07-31T02:35:04.864Z,0
2016-07-31T02:36:05.580Z,0
2016-07-31T02:37:04.910Z,0
2016-07-31T02:38:04.928Z,0
2016-07-31T02:39:04.960Z,0
2016-07-31T02:40:06.425Z,0
2016-07-31T02:41:05.731Z,0
2016-07-31T02:42:05.053Z,0
2016-07-31T02:43:05.079Z,0
2016-07-31T02:44:05.102Z,0
2016-07-31T02:45:05.140Z,0
2016-07-31T02:46:05.876Z,0
2016-07-31T02:47:05.187Z,0
2016-07-31T02:48:05.936Z,0
2016-07-31T02:49:05.302Z,0
2016-07-31T02:50:05.280Z,0
2016-07-31T02:51:06.049Z,0
2016-07-31T02:52:06.049Z,0
2016-07-31T02:53:06.077Z,0
2016-07-31T02:54:06.109Z,0
2016-07-31T02:55:05.432Z,0
2016-07-31T02:56:05.455Z,0
2016-07-31T02:57:05.492Z,0
2016-07-31T02:58:05.517Z,0
2016-07-31T02:59:05.559Z,0
2016-07-31T03:00:05.576Z,0
2016-07-31T03:01:05.624Z,0
2016-07-31T03:02:05.631Z,0
2016-07-31T03:03:06.382Z,0
2016-07-31T03:04:05.695Z,0
2016-07-31T03:05:06.451Z,0
2016-07-31T03:06:05.760Z,0
2016-07-31T03:07:05.787Z,0
2016-07-31T03:08:07.238Z,0
2016-07-31T03:09:06.556Z,0
2016-07-31T03:10:05.872Z,0
2016-07-31T03:11:05.908Z,0
2016-07-31T03:12:05.936Z,0
2016-07-31T03:13:05.965Z,0
2016-07-31T03:14:05.991Z,0
2016-07-31T03:15:06.015Z,0
2016-07-31T03:16:06.049Z,0
2016-07-31T03:17:06.078Z,0
2016-07-31T03:18:06.107Z,0
2016-07-31T03:19:06.143Z,0
2016-07-31T03:20:06.166Z,0
2016-07-31T03:21:06.927Z,0
2016-07-31T03:22:06.224Z,0
2016-07-31T03:23:06.977Z,0
2016-07-31T03:24:06.299Z,0
2016-07-31T03:25:06.324Z,0
2016-07-31T03:26:06.356Z,0
2016-07-31T03:27:06.371Z,0
2016-07-31T03:28:06.402Z,0
2016-07-31T03:29:06.431Z,0
2016-07-31T03:30:06.463Z,0
2016-07-31T03:31:07.204Z,0
2016-07-31T03:32:06.519Z,0
2016-07-31T03:33:06.552Z,0
2016-07-31T03:34:06.582Z,0
2016-07-31T03:35:06.610Z,0
2016-07-31T03:36:06.634Z,0
2016-07-31T03:37:07.381Z,0
2016-07-31T03:38:07.417Z,0
2016-07-31T03:39:06.741Z,0
2016-07-31T03:40:06.756Z,0
2016-07-31T03:41:06.786Z,0
2016-07-31T03:42:06.818Z,0
2016-07-31T03:43:06.865Z,4
2016-07-31T03:44:06.870Z,0
2016-07-31T03:45:06.916Z,0
2016-07-31T03:46:06.935Z,0
2016-07-31T03:47:06.960Z,0
2016-07-31T03:48:07.023Z,0
2016-07-31T03:49:07.029Z,0
2016-07-31T03:50:07.059Z,0
2016-07-31T03:51:07.790Z,0
2016-07-31T03:52:07.119Z,4
2016-07-31T03:53:07.145Z,0
2016-07-31T03:54:07.174Z,4
2016-07-31T03:55:07.216Z,0
2016-07-31T03:56:07.246Z,4
2016-07-31T03:57:07.269Z,4
2016-07-31T03:58:07.287Z,4
2016-07-31T03:59:07.368Z,0
2016-07-31T04:00:07.349Z,4
2016-07-31T04:01:08.087Z,4
2016-07-31T04:02:07.426Z,4
2016-07-31T04:03:09.617Z,4
2016-07-31T04:04:07.463Z,0
2016-07-31T04:05:07.500Z,0
2016-07-31T04:06:08.244Z,4
2016-07-31T04:07:08.263Z,4
2016-07-31T04:08:07.591Z,4
2016-07-31T04:09:07.613Z,0
2016-07-31T04:10:07.646Z,4
2016-07-31T04:11:07.668Z,4
2016-07-31T04:12:07.708Z,4
2016-07-31T04:13:08.438Z,4
2016-07-31T04:14:07.778Z,4
2016-07-31T04:15:07.792Z,4
2016-07-31T04:16:07.831Z,4
2016-07-31T04:17:07.850Z,8
2016-07-31T04:18:07.874Z,4
2016-07-31T04:19:08.616Z,4
2016-07-31T04:20:07.946Z,4
2016-07-31T04:21:07.976Z,4
2016-07-31T04:22:08.720Z,4
2016-07-31T04:23:08.732Z,4
2016-07-31T04:24:08.048Z,4
2016-07-31T04:25:08.081Z,8
2016-07-31T04:26:09.561Z,8
2016-07-31T04:27:08.847Z,8
2016-07-31T04:28:08.905Z,8
2016-07-31T04:29:08.200Z,8
2016-07-31T04:30:08.242Z,8
2016-07-31T04:31:08.260Z,8
2016-07-31T04:32:08.295Z,8
2016-07-31T04:33:09.756Z,8
2016-07-31T04:34:08.341Z,8
2016-07-31T04:35:08.377Z,8
2016-07-31T04:36:08.430Z,12
2016-07-31T04:37:08.436Z,8
2016-07-31T04:38:08.489Z,12
2016-07-31T04:39:08.499Z,12
2016-07-31T04:40:08.523Z,12
2016-07-31T04:41:08.558Z,8
2016-07-31T04:42:08.579Z,8
2016-07-31T04:43:08.622Z,8
2016-07-31T04:44:08.640Z,8
2016-07-31T04:45:08.681Z,8
2016-07-31T04:46:09.404Z,12
2016-07-31T04:47:08.727Z,8
2016-07-31T04:48:09.465Z,12
2016-07-31T04:49:08.780Z,12
2016-07-31T04:50:08.814Z,12
2016-07-31T04:51:08.838Z,8
2016-07-31T04:52:08.885Z,12
2016-07-31T04:53:08.901Z,12
2016-07-31T04:54:08.930Z,16
2016-07-31T04:55:08.964Z,12
2016-07-31T04:56:09.715Z,12
2016-07-31T04:57:09.730Z,12
2016-07-31T04:58:09.053Z,16
2016-07-31T04:59:10.520Z,16
2016-07-31T05:00:09.105Z,20
2016-07-31T05:01:09.139Z,20
2016-07-31T05:02:09.873Z,20
2016-07-31T05:03:09.193Z,24
2016-07-31T05:04:09.224Z,20
2016-07-31T05:05:09.261Z,24
2016-07-31T05:06:09.288Z,20
2016-07-31T05:07:09.308Z,20
2016-07-31T05:08:10.064Z,20
2016-07-31T05:09:10.109Z,20
2016-07-31T05:10:10.121Z,20
2016-07-31T05:11:10.134Z,20
2016-07-31T05:12:10.160Z,20
2016-07-31T05:13:09.495Z,16
2016-07-31T05:14:10.242Z,20
2016-07-31T05:15:09.550Z,16
2016-07-31T05:16:10.287Z,16
2016-07-31T05:17:10.310Z,16
2016-07-31T05:18:09.641Z,16
2016-07-31T05:19:09.661Z,16
2016-07-31T05:20:09.697Z,20
2016-07-31T05:21:09.725Z,20
2016-07-31T05:22:11.180Z,20
2016-07-31T05:23:09.774Z,16
2016-07-31T05:24:10.519Z,16
2016-07-31T05:25:09.844Z,16
2016-07-31T05:26:09.868Z,12
2016-07-31T05:27:09.893Z,12
2016-07-31T05:28:10.634Z,12
2016-07-31T05:29:10.016Z,12
2016-07-31T05:30:09.992Z,8
2016-07-31T05:31:10.723Z,8
2016-07-31T05:32:10.064Z,8
2016-07-31T05:33:10.076Z,8
2016-07-31T05:34:10.099Z,12
2016-07-31T05:35:10.131Z,8
2016-07-31T05:36:10.160Z,8
2016-07-31T05:37:10.190Z,12
2016-07-31T05:38:10.221Z,8
2016-07-31T05:39:10.255Z,8
2016-07-31T05:40:11.001Z,12
2016-07-31T05:41:10.307Z,8
2016-07-31T05:42:10.353Z,8
2016-07-31T05:43:10.370Z,12
2016-07-31T05:44:10.393Z,12
2016-07-31T05:45:10.425Z,12
2016-07-31T05:46:10.453Z,12
2016-07-31T05:47:10.498Z,8
2016-07-31T05:48:10.622Z,8
2016-07-31T05:49:10.552Z,12
2016-07-31T05:50:10.583Z,12
2016-07-31T05:51:10.609Z,8
2016-07-31T05:52:10.631Z,12
2016-07-31T05:53:10.662Z,8
2016-07-31T05:54:10.691Z,12
2016-07-31T05:55:10.715Z,12
2016-07-31T05:56:10.767Z,8
2016-07-31T05:57:10.782Z,8
2016-07-31T05:58:11.517Z,12
2016-07-31T05:59:11.550Z,8
2016-07-31T06:00:10.874Z,8
2016-07-31T06:01:10.899Z,8
2016-07-31T06:02:10.931Z,8
2016-07-31T06:03:10.961Z,8
2016-07-31T06:04:10.988Z,8
2016-07-31T06:05:11.026Z,8
2016-07-31T06:06:11.046Z,8
2016-07-31T06:07:11.093Z,8
2016-07-31T06:08:11.123Z,8
2016-07-31T06:09:11.141Z,12
2016-07-31T06:10:11.876Z,12
2016-07-31T06:11:11.200Z,12
2016-07-31T06:12:11.229Z,16
2016-07-31T06:13:11.256Z,12
2016-07-31T06:14:12.030Z,16
2016-07-31T06:15:11.324Z,20
2016-07-31T06:16:11.345Z,16
2016-07-31T06:17:11.377Z,20
2016-07-31T06:18:12.122Z,20
2016-07-31T06:19:11.435Z,20
2016-07-31T06:20:11.471Z,20
2016-07-31T06:21:11.505Z,16
2016-07-31T06:22:12.247Z,20
2016-07-31T06:23:12.272Z,20
2016-07-31T06:24:11.611Z,20
2016-07-31T06:25:11.613Z,20
2016-07-31T06:26:13.066Z,24
2016-07-31T06:27:11.672Z,24
2016-07-31T06:28:12.417Z,28
2016-07-31T06:29:11.734Z,28
2016-07-31T06:30:11.773Z,28
2016-07-31T06:31:11.803Z,32
2016-07-31T06:32:11.825Z,24
2016-07-31T06:33:11.861Z,20
2016-07-31T06:34:11.881Z,16
2016-07-31T06:35:11.913Z,16
2016-07-31T06:36:12.654Z,20
2016-07-31T06:37:11.973Z,16
2016-07-31T06:38:12.017Z,16
2016-07-31T06:39:12.076Z,12
2016-07-31T06:40:12.070Z,16
2016-07-31T06:41:12.095Z,16
2016-07-31T06:42:12.123Z,20
2016-07-31T06:43:12.152Z,20
2016-07-31T06:44:12.888Z,20
2016-07-31T06:45:12.215Z,20
2016-07-31T06:46:12.241Z,24
2016-07-31T06:47:12.277Z,24
2016-07-31T06:48:12.305Z,24
2016-07-31T06:49:12.352Z,24
2016-07-31T06:50:12.365Z,28
2016-07-31T06:51:12.400Z,24
2016-07-31T06:52:12.425Z,20
2016-07-31T06:53:12.458Z,20
2016-07-31T06:54:13.198Z,20
2016-07-31T06:55:12.535Z,20
2016-07-31T06:56:12.555Z,20
2016-07-31T06:57:14.768Z,16
2016-07-31T06:58:12.609Z,20
2016-07-31T06:59:14.062Z,20
2016-07-31T07:00:12.670Z,20
2016-07-31T07:01:12.697Z,20
2016-07-31T07:02:12.750Z,20
2016-07-31T07:03:12.759Z,20
2016-07-31T07:04:12.783Z,16
2016-07-31T07:05:13.536Z,20
2016-07-31T07:06:12.846Z,16
2016-07-31T07:07:12.880Z,16
2016-07-31T07:08:12.908Z,12
2016-07-31T07:09:12.947Z,12
2016-07-31T07:10:12.982Z,12
2016-07-31T07:11:13.000Z,12
2016-07-31T07:12:13.043Z,12
2016-07-31T07:13:13.063Z,12
2016-07-31T07:14:13.802Z,12
2016-07-31T07:15:13.121Z,12
2016-07-31T07:16:13.150Z,12
2016-07-31T07:17:13.908Z,12
2016-07-31T07:18:13.215Z,12
2016-07-31T07:19:14.668Z,12
2016-07-31T07:20:13.273Z,12
2016-07-31T07:21:13.302Z,16
2016-07-31T07:22:13.326Z,12
2016-07-31T07:23:13.354Z,12
2016-07-31T07:24:13.390Z,16
2016-07-31T07:25:14.146Z,16
2016-07-31T07:26:13.450Z,16
2016-07-31T07:27:13.486Z,12
2016-07-31T07:28:13.519Z,12
2016-07-31T07:29:13.543Z,16
2016-07-31T07:30:13.590Z,12
2016-07-31T07:31:13.601Z,16
2016-07-31T07:32:13.633Z,16
2016-07-31T07:33:13.662Z,16
2016-07-31T07:34:13.698Z,16
2016-07-31T07:35:13.720Z,16
2016-07-31T07:36:13.751Z,20
2016-07-31T07:37:13.785Z,24
2016-07-31T07:38:13.832Z,20
2016-07-31T07:39:13.844Z,20
2016-07-31T07:40:13.876Z,20
2016-07-31T07:41:13.901Z,20
2016-07-31T07:42:13.932Z,16
2016-07-31T07:43:13.978Z,12
2016-07-31T07:44:14.722Z,12
2016-07-31T07:45:14.022Z,12
2016-07-31T07:46:14.053Z,12
2016-07-31T07:47:14.085Z,12
2016-07-31T07:48:14.110Z,12
2016-07-31T07:49:14.149Z,12
2016-07-31T07:50:14.178Z,16
2016-07-31T07:51:14.201Z,16
2016-07-31T07:52:14.231Z,16
2016-07-31T07:53:14.289Z,16
2016-07-31T07:54:14.299Z,16
2016-07-31T07:55:14.318Z,16
2016-07-31T07:56:14.357Z,16
2016-07-31T07:57:14.386Z,16
2016-07-31T07:58:14.417Z,20
2016-07-31T07:59:14.445Z,20
2016-07-31T08:00:14.490Z,16
2016-07-31T08:01:14.498Z,16
2016-07-31T08:02:16.355Z,16
2016-07-31T08:03:14.562Z,12
2016-07-31T08:04:14.600Z,12
2016-07-31T08:05:15.338Z,12
2016-07-31T08:06:14.650Z,16
2016-07-31T08:07:15.403Z,16
2016-07-31T08:08:14.709Z,12
2016-07-31T08:09:15.449Z,16
2016-07-31T08:10:14.773Z,12
2016-07-31T08:11:15.515Z,12
2016-07-31T08:12:14.828Z,16
2016-07-31T08:13:14.855Z,16
2016-07-31T08:14:14.889Z,16
2016-07-31T08:15:16.341Z,12
2016-07-31T08:16:14.959Z,12
2016-07-31T08:17:15.686Z,12
2016-07-31T08:18:15.159Z,12
2016-07-31T08:19:15.749Z,12
2016-07-31T08:20:15.066Z,8
2016-07-31T08:21:15.090Z,8
2016-07-31T08:22:15.126Z,8
2016-07-31T08:23:15.871Z,8
2016-07-31T08:24:15.181Z,12
2016-07-31T08:25:15.228Z,8
2016-07-31T08:26:15.244Z,12
2016-07-31T08:27:15.978Z,12
2016-07-31T08:28:15.303Z,12
2016-07-31T08:29:15.330Z,8
2016-07-31T08:30:15.361Z,8
2016-07-31T08:31:16.100Z,8
2016-07-31T08:32:16.152Z,12
2016-07-31T08:33:15.449Z,12
2016-07-31T08:34:15.479Z,16
2016-07-31T08:35:16.213Z,16
2016-07-31T08:36:15.530Z,12
2016-07-31T08:37:15.566Z,16
2016-07-31T08:38:15.595Z,16
2016-07-31T08:39:15.623Z,16
2016-07-31T08:40:15.656Z,16
2016-07-31T08:41:16.392Z,12
2016-07-31T08:42:15.731Z,16
2016-07-31T08:43:15.754Z,16
2016-07-31T08:44:15.774Z,12
2016-07-31T08:45:16.513Z,12
2016-07-31T08:46:15.837Z,12
2016-07-31T08:47:15.872Z,12
2016-07-31T08:48:15.884Z,12
2016-07-31T08:49:15.911Z,8
2016-07-31T08:50:15.953Z,12
2016-07-31T08:51:15.973Z,8
2016-07-31T08:52:15.994Z,8
2016-07-31T08:53:16.741Z,8
2016-07-31T08:54:16.059Z,8
2016-07-31T08:55:16.087Z,4
2016-07-31T08:56:16.123Z,4
2016-07-31T08:57:16.160Z,8
2016-07-31T08:58:16.175Z,8
2016-07-31T08:59:16.208Z,8
2016-07-31T09:00:16.231Z,8
2016-07-31T09:01:16.264Z,8
2016-07-31T09:02:16.291Z,8
2016-07-31T09:03:16.316Z,8
2016-07-31T09:04:16.359Z,4
2016-07-31T09:05:16.379Z,8
2016-07-31T09:06:16.408Z,4
2016-07-31T09:07:17.148Z,8
2016-07-31T09:08:16.464Z,8
2016-07-31T09:09:16.497Z,8
2016-07-31T09:10:16.528Z,8
2016-07-31T09:11:16.552Z,8
2016-07-31T09:12:17.287Z,8
2016-07-31T09:13:17.334Z,8
2016-07-31T09:14:17.348Z,12
2016-07-31T09:15:16.671Z,12
2016-07-31T09:16:16.718Z,12
2016-07-31T09:17:16.727Z,12
2016-07-31T09:18:16.751Z,16
2016-07-31T09:19:16.780Z,12
2016-07-31T09:20:17.525Z,16
2016-07-31T09:21:17.553Z,16
2016-07-31T09:22:17.587Z,16
2016-07-31T09:23:16.911Z,20
2016-07-31T09:24:16.931Z,20
2016-07-31T09:25:16.955Z,20
2016-07-31T09:26:16.987Z,24
2016-07-31T09:27:17.722Z,24
2016-07-31T09:28:17.040Z,24
2016-07-31T09:29:17.778Z,24
2016-07-31T09:30:17.122Z,24
2016-07-31T09:31:17.851Z,20
2016-07-31T09:32:17.163Z,20
2016-07-31T09:33:17.897Z,20
2016-07-31T09:34:17.926Z,20
2016-07-31T09:35:17.262Z,20
2016-07-31T09:36:17.267Z,20
2016-07-31T09:37:18.043Z,16
2016-07-31T09:38:18.063Z,16
2016-07-31T09:39:17.367Z,16
2016-07-31T09:40:17.386Z,16
2016-07-31T09:41:17.411Z,16
2016-07-31T09:42:17.451Z,16
2016-07-31T09:43:17.471Z,16
2016-07-31T09:44:17.507Z,16
2016-07-31T09:45:17.544Z,16
2016-07-31T09:46:18.284Z,16
2016-07-31T09:47:18.296Z,16
2016-07-31T09:48:17.644Z,12
2016-07-31T09:49:17.648Z,16
2016-07-31T09:50:17.669Z,16
2016-07-31T09:51:17.711Z,16
2016-07-31T09:52:17.728Z,16
2016-07-31T09:53:18.478Z,20
2016-07-31T09:54:18.499Z,16
2016-07-31T09:55:17.845Z,16
2016-07-31T09:56:17.860Z,20
2016-07-31T09:57:17.881Z,16
2016-07-31T09:58:17.906Z,20
2016-07-31T09:59:17.944Z,20
2016-07-31T10:00:18.688Z,20
2016-07-31T10:01:18.013Z,20
2016-07-31T10:02:18.012Z,24
2016-07-31T10:03:18.757Z,20
2016-07-31T10:04:19.511Z,24
2016-07-31T10:05:19.515Z,24
2016-07-31T10:06:18.130Z,24
2016-07-31T10:07:18.868Z,24
2016-07-31T10:08:18.182Z,24
2016-07-31T10:09:18.219Z,28
2016-07-31T10:10:18.265Z,24
2016-07-31T10:11:18.300Z,28
2016-07-31T10:12:18.303Z,28
2016-07-31T10:13:18.326Z,28
2016-07-31T10:14:18.350Z,28
2016-07-31T10:16:18.416Z,24
2016-07-31T10:17:19.155Z,28
2016-07-31T10:18:19.209Z,24
2016-07-31T10:19:19.215Z,24
2016-07-31T10:20:19.239Z,24
2016-07-31T10:21:18.555Z,24
2016-07-31T10:22:19.304Z,24
2016-07-31T10:23:18.624Z,24
2016-07-31T10:24:18.641Z,24
2016-07-31T10:25:19.419Z,24
2016-07-31T10:26:18.699Z,28
2016-07-31T10:27:18.730Z,28
2016-07-31T10:28:19.472Z,24
2016-07-31T10:29:19.512Z,24
2016-07-31T10:31:19.577Z,20
2016-07-31T10:32:18.865Z,20
2016-07-31T10:33:19.619Z,24
2016-07-31T10:34:18.931Z,20
2016-07-31T10:35:18.953Z,20
2016-07-31T10:36:18.978Z,20
2016-07-31T10:37:19.037Z,20
2016-07-31T10:38:19.040Z,20
2016-07-31T10:39:19.068Z,20
2016-07-31T10:40:19.101Z,20
2016-07-31T10:41:19.133Z,24
2016-07-31T10:42:19.164Z,24
2016-07-31T10:43:19.179Z,28
2016-07-31T10:44:19.230Z,28
2016-07-31T10:46:19.271Z,28
2016-07-31T10:47:20.020Z,32
2016-07-31T10:48:20.048Z,32
2016-07-31T10:49:19.359Z,32
2016-07-31T10:50:20.119Z,32
2016-07-31T10:51:19.443Z,36
2016-07-31T10:52:20.868Z,36
2016-07-31T10:53:20.191Z,36
2016-07-31T10:54:19.510Z,36
2016-07-31T10:55:20.235Z,40
2016-07-31T10:56:19.563Z,40
2016-07-31T10:57:19.589Z,44
2016-07-31T10:58:20.332Z,44
2016-07-31T10:59:19.727Z,40
2016-07-31T11:01:19.708Z,44
2016-07-31T11:02:19.726Z,40
2016-07-31T11:03:20.478Z,40
2016-07-31T11:04:19.792Z,36
2016-07-31T11:05:19.819Z,40
2016-07-31T11:06:19.867Z,36
2016-07-31T11:07:20.599Z,32
2016-07-31T11:08:20.611Z,36
2016-07-31T11:09:20.643Z,32
2016-07-31T11:10:19.965Z,32
2016-07-31T11:11:19.987Z,28
2016-07-31T11:12:20.030Z,28
2016-07-31T11:13:20.039Z,28
2016-07-31T11:14:20.082Z,24
2016-07-31T11:16:20.838Z,28
2016-07-31T11:17:20.873Z,28
2016-07-31T11:18:20.907Z,24
2016-07-31T11:19:20.222Z,28
2016-07-31T11:20:20.252Z,28
2016-07-31T11:21:21.705Z,28
2016-07-31T11:22:20.299Z,24
2016-07-31T11:23:21.055Z,28
2016-07-31T11:24:20.374Z,24
2016-07-31T11:25:21.093Z,24
2016-07-31T11:26:20.413Z,24
2016-07-31T11:27:21.162Z,24
2016-07-31T11:28:20.477Z,24
2016-07-31T11:29:21.221Z,24
2016-07-31T11:30:21.256Z,28
2016-07-31T11:31:20.556Z,24
2016-07-31T11:32:20.797Z,24
2016-07-31T11:33:20.641Z,24
2016-07-31T11:34:20.643Z,24
2016-07-31T11:35:20.673Z,24
2016-07-31T11:36:21.416Z,28
2016-07-31T11:37:20.735Z,24
2016-07-31T11:38:21.472Z,28
2016-07-31T11:39:21.497Z,28
2016-07-31T11:40:20.818Z,24
2016-07-31T11:41:20.851Z,24
2016-07-31T11:42:21.590Z,28
2016-07-31T11:43:20.906Z,28
2016-07-31T11:44:20.940Z,24
2016-07-31T11:45:20.963Z,28
2016-07-31T11:46:21.711Z,28
2016-07-31T11:47:21.020Z,28
2016-07-31T11:48:21.760Z,28
2016-07-31T11:49:21.071Z,28
2016-07-31T11:50:21.109Z,28
2016-07-31T11:51:21.135Z,32
2016-07-31T11:52:21.161Z,32
2016-07-31T11:53:21.195Z,28
2016-07-31T11:54:21.221Z,32
2016-07-31T11:55:21.248Z,32
2016-07-31T11:56:21.282Z,32
2016-07-31T11:57:21.320Z,36
2016-07-31T11:58:22.756Z,36
2016-07-31T11:59:21.368Z,36
2016-07-31T12:00:21.404Z,40
2016-07-31T12:01:22.145Z,40
2016-07-31T12:02:22.167Z,40
2016-07-31T12:03:21.507Z,44
2016-07-31T12:04:22.270Z,48
2016-07-31T12:05:21.551Z,48
2016-07-31T12:06:21.576Z,48
2016-07-31T12:07:21.608Z,52
2016-07-31T12:08:21.627Z,52
2016-07-31T12:09:21.658Z,52
2016-07-31T12:10:22.398Z,56
2016-07-31T12:11:21.715Z,56
2016-07-31T12:12:22.461Z,52
2016-07-31T12:13:21.783Z,60
2016-07-31T12:14:21.798Z,60
2016-07-31T12:15:22.540Z,60
2016-07-31T12:16:21.866Z,60
2016-07-31T12:17:21.911Z,64
2016-07-31T12:18:21.917Z,72
2016-07-31T12:19:23.397Z,72
2016-07-31T12:20:22.703Z,72
2016-07-31T12:21:22.009Z,72
2016-07-31T12:22:22.034Z,68
2016-07-31T12:23:22.769Z,68
2016-07-31T12:24:22.108Z,68
2016-07-31T12:25:22.147Z,68
2016-07-31T12:26:22.150Z,64
2016-07-31T12:27:22.181Z,64
2016-07-31T12:28:22.935Z,64
2016-07-31T12:29:22.240Z,60
2016-07-31T12:30:22.283Z,60
2016-07-31T12:31:23.008Z,56
2016-07-31T12:32:23.745Z,52
2016-07-31T12:33:22.356Z,48
2016-07-31T12:34:23.805Z,44
2016-07-31T12:35:23.839Z,36
2016-07-31T12:36:22.446Z,32
2016-07-31T12:37:22.479Z,32
2016-07-31T12:38:22.501Z,28
2016-07-31T12:39:23.957Z,28
2016-07-31T12:40:22.568Z,32
2016-07-31T12:41:23.301Z,28
2016-07-31T12:42:22.620Z,32
2016-07-31T12:43:22.652Z,32
2016-07-31T12:44:23.046Z,32
2016-07-31T12:45:22.709Z,28
2016-07-31T12:46:22.739Z,24
2016-07-31T12:47:22.768Z,20
2016-07-31T12:48:23.541Z,20
2016-07-31T12:49:23.536Z,16
2016-07-31T12:50:23.633Z,16
2016-07-31T12:51:22.892Z,20
2016-07-31T12:52:22.920Z,16
2016-07-31T12:53:22.950Z,20
2016-07-31T12:54:22.977Z,20
2016-07-31T12:55:23.709Z,24
2016-07-31T12:56:23.746Z,24
2016-07-31T12:57:23.773Z,24
2016-07-31T12:58:23.105Z,20
2016-07-31T12:59:23.129Z,20
2016-07-31T13:00:23.158Z,20
2016-07-31T13:01:23.211Z,20
2016-07-31T13:02:23.228Z,20
2016-07-31T13:03:23.245Z,20
2016-07-31T13:04:23.984Z,16
2016-07-31T13:05:23.299Z,16
2016-07-31T13:06:23.331Z,16
2016-07-31T13:07:23.358Z,16
2016-07-31T13:08:24.098Z,16
2016-07-31T13:09:23.431Z,16
2016-07-31T13:10:24.160Z,12
2016-07-31T13:11:23.477Z,16
2016-07-31T13:12:24.217Z,12
2016-07-31T13:13:23.537Z,16
2016-07-31T13:14:23.568Z,16
2016-07-31T13:15:23.599Z,12
2016-07-31T13:16:23.636Z,12
2016-07-31T13:17:24.377Z,12
2016-07-31T13:18:24.394Z,12
2016-07-31T13:19:23.742Z,12
2016-07-31T13:20:23.746Z,8
2016-07-31T13:21:25.193Z,12
2016-07-31T13:22:23.804Z,12
2016-07-31T13:23:25.292Z,12
2016-07-31T13:24:23.887Z,12
2016-07-31T13:25:23.908Z,16
2016-07-31T13:26:23.932Z,16
2016-07-31T13:27:24.661Z,20
2016-07-31T13:28:23.979Z,24
2016-07-31T13:29:24.022Z,20
2016-07-31T13:30:24.050Z,24
2016-07-31T13:31:24.080Z,24
2016-07-31T13:32:24.807Z,28
2016-07-31T13:33:24.142Z,28
2016-07-31T13:34:24.865Z,32
2016-07-31T13:35:24.185Z,32
2016-07-31T13:36:24.215Z,32
2016-07-31T13:37:24.957Z,32
2016-07-31T13:38:24.280Z,36
2016-07-31T13:39:25.011Z,36
2016-07-31T13:40:25.066Z,32
2016-07-31T13:41:25.087Z,32
2016-07-31T13:42:24.391Z,32
2016-07-31T13:43:24.428Z,32
2016-07-31T13:44:25.159Z,32
2016-07-31T13:45:25.193Z,32
2016-07-31T13:46:25.212Z,32
2016-07-31T13:47:25.270Z,32
2016-07-31T13:48:24.574Z,32
2016-07-31T13:49:24.606Z,36
2016-07-31T13:50:24.619Z,36
2016-07-31T13:51:24.655Z,36
2016-07-31T13:52:24.699Z,40
2016-07-31T13:53:25.427Z,40
2016-07-31T13:54:24.757Z,40
2016-07-31T13:55:25.493Z,40
2016-07-31T13:56:24.815Z,44
2016-07-31T13:57:25.534Z,40
2016-07-31T13:58:25.566Z,36
2016-07-31T13:59:24.900Z,36
2016-07-31T14:00:24.930Z,36
2016-07-31T14:02:24.968Z,32
2016-07-31T14:03:26.435Z,28
2016-07-31T14:04:25.032Z,32
2016-07-31T14:05:25.769Z,28
2016-07-31T14:06:26.514Z,32
2016-07-31T14:07:25.829Z,32
2016-07-31T14:08:25.871Z,32
2016-07-31T14:09:25.178Z,36
2016-07-31T14:10:25.926Z,36
2016-07-31T14:11:25.239Z,40
2016-07-31T14:12:25.983Z,40
2016-07-31T14:13:25.366Z,40
2016-07-31T14:14:26.051Z,40
2016-07-31T14:15:26.797Z,40
2016-07-31T14:16:25.777Z,44
2016-07-31T14:17:26.134Z,40
2016-07-31T14:18:25.437Z,44
2016-07-31T14:19:25.469Z,44
2016-07-31T14:20:25.506Z,44
2016-07-31T14:21:26.244Z,44
2016-07-31T14:22:25.554Z,44
2016-07-31T14:23:27.004Z,44
2016-07-31T14:24:25.627Z,44
2016-07-31T14:25:25.639Z,44
2016-07-31T14:26:25.667Z,44
2016-07-31T14:27:25.701Z,40
2016-07-31T14:28:25.731Z,40
2016-07-31T14:29:27.186Z,44
2016-07-31T14:30:25.784Z,44
2016-07-31T14:31:26.062Z,40
2016-07-31T14:32:26.557Z,36
2016-07-31T14:33:25.871Z,36
2016-07-31T14:34:25.899Z,32
2016-07-31T14:35:25.935Z,32
2016-07-31T14:36:25.960Z,32
2016-07-31T14:37:25.989Z,32
2016-07-31T14:38:26.028Z,28